Aérodrome :
LOGIN :

S'inscrire | Disclaimer

   EN    FR    IT 

 










Légende :    VFR   VFR Marginal   IFR   IFR Intensif   IFR Très Intensif
Visi : 
Plafond : 
>= 8 km
>= 3000ft
5 à 8 km
1000 à 3000 ft
1500m à 5 km
500 à 1000 ft
800 à 1500m
200 à 500 ft
< 800m
< 200 ft
Symboles :   Orages  Brouillard  Fortes neiges  Fortes précipitations  Vent > 20 kt
SIGMETs :   Divers  Orages  Givrage  Turbulence  Onde Orograph.  Cendres Volcan.






- Altitude de l'aérodrome : 56 ft
- Code IATA : BZR


LFMU - Beziers / Vias

DERNIER METAR :
  • 030930Z AUTO 14007KT 100V170 9999 // NSC 24/15 Q1009

METARs EXPIRÉS :
  • 030900Z AUTO 15006KT 110V200 CAVOK 24/15 Q1009
  • 030830Z AUTO 15004KT 090V220 CAVOK 24/17 Q1009
  • 030800Z AUTO 12004KT 080V200 CAVOK 23/18 Q1009
  • 030730Z AUTO 10003KT 040V160 9999 FEW007 22/18 Q1010
  • 030700Z AUTO VRB03KT 9999 SCT006 20/18 Q1010

Prévision TAF périmée.
ATIS : +33 4 67 90 88 88



MET'MAP, la Météo Aéronautique d'un coup d'oeil ! - Copyright ORBIFLY Décembre 2007 - Disclaimer

ORBIFLY MET'MAP TEAM :

Programmation & Développement : Alexandra Zaïnal
Sur une idée originale de : Baudouin d'Aumeries
Assistance à la programmation : Marc-Olivier Méhu
Soutien technique & logistique : Manuel Goepfert

Contact : metmap@orbifly.com




SOURCES & CREDITS :

   NOAA